Time;durP1;ratioP1;P1;durP2;ratioP2;P2;SDS_P1;SDS_P2;PMS_P1;PMS_P2;Temp;Humidity;BMP_temperature;BMP_pressure;BME280_temperature;BME280_humidity;BME280_pressure;Samples;Min_cycle;Max_cycle;Signal;HPM_P1;HPM_P2
2022/02/22 00:00:07;;;;;;;12.18;8.68;;;12.60;99.90;;;;;;5071684;28;20048;-74
2022/02/22 00:02:34;;;;;;;14.05;8.95;;;12.70;99.90;;;;;;5080181;28;20043;-76
2022/02/22 00:05:03;;;;;;;17.45;9.20;;;12.70;99.90;;;;;;5074314;28;20047;-76
2022/02/22 00:07:30;;;;;;;11.40;8.40;;;12.80;99.90;;;;;;5081129;28;20087;-73
2022/02/22 00:09:58;;;;;;;15.55;9.85;;;12.80;99.90;;;;;;5089935;28;20480;-76
2022/02/22 00:12:25;;;;;;;12.95;9.23;;;12.70;99.90;;;;;;5091817;28;20062;-74
2022/02/22 00:14:52;;;;;;;16.15;10.15;;;12.80;99.90;;;;;;5080133;28;20131;-75
2022/02/22 00:17:19;;;;;;;13.55;8.77;;;12.80;99.90;;;;;;5084717;28;20045;-77
2022/02/22 00:19:47;;;;;;;16.20;9.25;;;12.70;99.90;;;;;;5070351;28;20041;-73
2022/02/22 00:22:14;;;;;;;15.98;9.13;;;12.70;99.90;;;;;;5070604;28;20581;-74
2022/02/22 00:24:41;;;;;;;14.95;9.15;;;12.80;99.90;;;;;;5070154;28;20044;-75
2022/02/22 00:27:08;;;;;;;15.73;8.85;;;12.70;99.90;;;;;;5070139;28;20075;-75
2022/02/22 00:29:35;;;;;;;13.30;9.60;;;12.80;99.90;;;;;;5074604;28;20043;-74
2022/02/22 00:32:03;;;;;;;15.02;9.13;;;12.60;99.90;;;;;;5078237;28;20045;-80
2022/02/22 00:34:31;;;;;;;14.35;8.65;;;12.50;99.90;;;;;;5078237;28;20047;-76
2022/02/22 00:36:58;;;;;;;15.57;9.65;;;12.60;99.90;;;;;;5069068;28;20401;-74
2022/02/22 00:39:25;;;;;;;44.60;28.98;;;12.30;99.90;;;;;;5068248;28;20168;-76
2022/02/22 00:41:52;;;;;;;80.88;44.63;;;12.30;99.90;;;;;;5069885;28;20055;-75
2022/02/22 00:44:21;;;;;;;28.42;18.08;;;12.50;99.90;;;;;;5087246;28;20036;-73
2022/02/22 00:46:51;;;;;;;19.15;10.57;;;12.50;99.90;;;;;;5068970;28;20574;-75
2022/02/22 00:49:18;;;;;;;14.32;8.75;;;12.50;99.90;;;;;;5084167;28;20402;-73
2022/02/22 00:51:45;;;;;;;20.33;9.18;;;12.40;99.90;;;;;;5072332;28;20497;-74
2022/02/22 00:54:12;;;;;;;14.88;9.40;;;12.50;99.90;;;;;;5075859;28;20369;-79
2022/02/22 00:56:39;;;;;;;12.07;9.27;;;12.30;99.90;;;;;;5084132;28;20049;-78
2022/02/22 00:59:07;;;;;;;15.75;10.10;;;12.40;99.90;;;;;;5079750;28;20040;-79
2022/02/22 01:01:34;;;;;;;12.85;9.85;;;12.60;99.90;;;;;;5079354;28;20413;-75
2022/02/22 01:04:02;;;;;;;16.15;9.52;;;12.60;99.90;;;;;;5088110;28;20036;-80
2022/02/22 01:06:29;;;;;;;13.88;9.35;;;12.60;99.90;;;;;;5081972;28;20048;-74
2022/02/22 01:08:56;;;;;;;16.67;11.18;;;12.40;99.90;;;;;;5054442;28;20040;-77
2022/02/22 01:11:24;;;;;;;16.50;10.15;;;12.50;99.90;;;;;;5076536;28;20071;-79
2022/02/22 01:13:51;;;;;;;16.77;9.75;;;12.60;99.90;;;;;;5070441;28;20052;-74
2022/02/22 01:16:18;;;;;;;14.13;9.40;;;12.50;99.90;;;;;;5082159;28;20052;-74
2022/02/22 01:18:45;;;;;;;15.95;9.95;;;12.30;99.90;;;;;;5086971;28;20036;-73
2022/02/22 01:21:13;;;;;;;16.95;9.93;;;12.50;99.90;;;;;;5081538;28;20048;-69
2022/02/22 01:23:40;;;;;;;15.45;10.20;;;12.60;99.90;;;;;;5063615;28;20046;-72
2022/02/22 01:26:07;;;;;;;13.85;8.93;;;12.40;99.90;;;;;;5073493;28;20036;-72
2022/02/22 01:28:34;;;;;;;15.43;9.35;;;12.50;99.90;;;;;;5087794;28;20036;-73
2022/02/22 01:31:03;;;;;;;13.38;10.23;;;12.40;99.90;;;;;;5079889;28;20094;-74
2022/02/22 01:33:30;;;;;;;18.05;9.85;;;12.50;99.90;;;;;;5060061;28;20033;-73
2022/02/22 01:35:57;;;;;;;15.43;10.43;;;12.50;99.90;;;;;;5086790;28;20840;-75
2022/02/22 01:38:25;;;;;;;16.10;9.50;;;12.50;99.90;;;;;;5088758;28;20040;-73
2022/02/22 01:40:55;;;;;;;13.63;10.00;;;12.40;99.90;;;;;;5074398;28;20516;-74
2022/02/22 01:43:23;;;;;;;19.63;10.48;;;12.40;99.90;;;;;;5075255;28;20036;-74
2022/02/22 01:45:50;;;;;;;17.70;10.05;;;12.40;99.90;;;;;;5082453;28;20519;-73
2022/02/22 01:48:18;;;;;;;15.68;9.43;;;12.50;99.90;;;;;;5075169;28;20428;-71
2022/02/22 01:50:45;;;;;;;16.23;9.40;;;12.50;99.90;;;;;;5076576;28;20664;-73
2022/02/22 01:53:14;;;;;;;15.35;9.70;;;12.40;99.90;;;;;;5074810;28;20349;-72
2022/02/22 01:55:43;;;;;;;17.00;10.13;;;12.40;99.90;;;;;;5087191;28;20049;-72
2022/02/22 01:58:10;;;;;;;14.20;9.55;;;12.40;99.90;;;;;;5081562;28;20044;-76
2022/02/22 02:00:38;;;;;;;15.23;10.07;;;11.90;99.90;;;;;;5082933;28;20404;-73
2022/02/22 02:03:05;;;;;;;15.73;10.20;;;11.90;99.90;;;;;;5053555;28;20403;-75
2022/02/22 02:05:33;;;;;;;17.10;10.00;;;12.00;99.90;;;;;;5076288;28;20124;-72
2022/02/22 02:08:00;;;;;;;15.68;11.02;;;11.90;99.90;;;;;;5086489;28;20098;-71
2022/02/22 02:10:27;;;;;;;13.80;10.80;;;11.80;99.90;;;;;;5076685;28;20090;-79
2022/02/22 02:12:55;;;;;;;17.33;10.95;;;11.50;99.90;;;;;;5078560;28;20052;-73
2022/02/22 02:15:22;;;;;;;18.65;11.02;;;11.30;99.90;;;;;;5076115;28;20662;-75
2022/02/22 02:17:49;;;;;;;15.82;11.40;;;11.60;99.90;;;;;;5079227;28;20047;-74
2022/02/22 02:20:16;;;;;;;16.30;11.32;;;11.70;99.90;;;;;;5087900;28;20040;-74
2022/02/22 02:22:44;;;;;;;22.63;11.45;;;11.80;99.90;;;;;;5079597;28;20048;-73
2022/02/22 02:25:13;;;;;;;19.67;10.95;;;11.80;99.90;;;;;;5070412;28;20044;-81
2022/02/22 02:27:42;;;;;;;16.38;11.50;;;11.80;99.90;;;;;;5070936;28;20496;-74
2022/02/22 02:30:10;;;;;;;21.45;11.73;;;11.80;99.90;;;;;;5086781;28;20047;-72
2022/02/22 02:32:38;;;;;;;16.38;11.10;;;11.80;99.90;;;;;;5084246;28;20477;-72
2022/02/22 02:35:06;;;;;;;19.13;12.38;;;11.80;99.90;;;;;;5091423;28;20047;-73
2022/02/22 02:37:38;;;;;;;18.02;11.20;;;11.40;99.90;;;;;;5076641;28;20055;-75
2022/02/22 02:40:25;;;;;;;18.13;11.48;;;11.60;99.90;;;;;;5069979;28;20169;-72
2022/02/22 02:42:52;;;;;;;18.70;11.68;;;11.70;99.90;;;;;;5074430;28;20405;-74
2022/02/22 02:45:22;;;;;;;17.23;11.15;;;11.70;99.90;;;;;;5080513;28;20537;-74
2022/02/22 02:47:49;;;;;;;18.55;11.70;;;11.60;99.90;;;;;;5079854;28;20393;-80
2022/02/22 02:50:16;;;;;;;20.13;12.85;;;11.60;99.90;;;;;;5087164;28;20048;-78
2022/02/22 02:52:44;;;;;;;17.95;12.70;;;11.50;99.90;;;;;;5074514;28;20384;-73
2022/02/22 02:55:11;;;;;;;20.42;12.90;;;11.40;99.90;;;;;;5077246;28;20071;-75
2022/02/22 02:57:39;;;;;;;19.55;12.55;;;11.40;99.90;;;;;;5091259;28;20047;-74
2022/02/22 03:00:08;;;;;;;21.25;12.80;;;11.60;99.90;;;;;;5088485;28;20063;-77
2022/02/22 03:02:35;;;;;;;17.02;12.98;;;11.70;99.90;;;;;;5092303;28;20119;-74
2022/02/22 03:05:03;;;;;;;17.52;12.30;;;11.50;99.90;;;;;;5081477;28;20040;-75
2022/02/22 03:07:30;;;;;;;19.38;12.80;;;11.50;99.90;;;;;;5083882;28;20127;-79
2022/02/22 03:09:57;;;;;;;22.75;12.75;;;11.50;99.90;;;;;;5089827;28;20043;-74
2022/02/22 03:12:24;;;;;;;21.98;12.70;;;11.50;99.90;;;;;;5078661;28;20401;-79
2022/02/22 03:14:52;;;;;;;17.15;12.10;;;11.50;99.90;;;;;;5084277;28;20051;-79
2022/02/22 03:17:19;;;;;;;17.65;12.43;;;11.50;99.90;;;;;;5084809;28;20052;-75
2022/02/22 03:19:46;;;;;;;18.50;11.65;;;11.20;99.90;;;;;;5082947;28;20036;-81
2022/02/22 03:22:14;;;;;;;17.25;12.38;;;11.00;99.90;;;;;;5080185;28;20379;-79
2022/02/22 03:24:42;;;;;;;16.13;11.52;;;10.90;99.90;;;;;;5062859;28;20048;-75
2022/02/22 03:27:09;;;;;;;19.30;12.93;;;11.20;99.90;;;;;;5066086;28;20044;-83
2022/02/22 03:29:36;;;;;;;20.98;12.68;;;11.20;99.90;;;;;;5076805;28;20039;-73
2022/02/22 03:32:04;;;;;;;17.58;12.55;;;11.20;99.90;;;;;;5084818;28;20044;-75
2022/02/22 03:34:31;;;;;;;20.63;13.63;;;11.20;99.90;;;;;;5076509;28;20460;-72
2022/02/22 03:36:58;;;;;;;17.98;12.13;;;10.70;99.90;;;;;;5088287;28;20040;-70
2022/02/22 03:39:25;;;;;;;19.30;12.52;;;10.80;99.90;;;;;;5086268;28;20041;-73
2022/02/22 03:41:53;;;;;;;19.45;13.02;;;10.60;99.90;;;;;;5084484;28;20040;-73
2022/02/22 03:44:20;;;;;;;19.02;12.75;;;10.50;99.90;;;;;;5074999;28;20110;-70
2022/02/22 03:46:47;;;;;;;18.25;11.35;;;10.40;99.90;;;;;;5080657;28;20051;-72
2022/02/22 03:49:14;;;;;;;15.73;11.25;;;10.50;99.90;;;;;;5070597;28;20119;-73
2022/02/22 03:51:42;;;;;;;20.17;11.73;;;10.60;99.90;;;;;;5061069;28;20497;-71
2022/02/22 03:54:09;;;;;;;15.65;11.32;;;10.70;99.90;;;;;;5076604;28;20398;-73
2022/02/22 03:56:36;;;;;;;18.63;11.70;;;10.70;99.90;;;;;;5081862;28;20094;-72
2022/02/22 03:59:04;;;;;;;17.45;11.43;;;10.60;99.90;;;;;;5080408;28;20546;-75
2022/02/22 04:01:31;;;;;;;15.50;10.60;;;10.60;99.90;;;;;;5073075;28;20057;-79
2022/02/22 04:03:58;;;;;;;18.30;10.88;;;10.60;99.90;;;;;;5083967;28;20048;-78
2022/02/22 04:06:26;;;;;;;16.35;10.75;;;10.60;99.90;;;;;;5090794;28;20070;-78
2022/02/22 04:08:53;;;;;;;17.55;10.57;;;10.80;99.90;;;;;;5072440;28;20052;-77
2022/02/22 04:11:21;;;;;;;20.50;11.43;;;10.50;99.90;;;;;;5076888;28;20099;-73
2022/02/22 04:13:48;;;;;;;14.98;10.00;;;10.50;99.90;;;;;;5082254;28;20036;-74
2022/02/22 04:16:15;;;;;;;17.23;10.30;;;10.20;99.90;;;;;;5084851;28;20390;-74
2022/02/22 04:18:43;;;;;;;13.60;10.13;;;10.30;99.90;;;;;;5081190;28;20067;-72
2022/02/22 04:21:10;;;;;;;14.82;10.05;;;10.40;99.90;;;;;;5089375;28;20059;-77
2022/02/22 04:23:37;;;;;;;15.18;9.73;;;10.60;99.90;;;;;;5075306;28;20050;-75
2022/02/22 04:26:04;;;;;;;15.40;9.88;;;10.80;99.90;;;;;;5073607;28;20051;-73
2022/02/22 04:28:31;;;;;;;13.95;9.40;;;10.50;99.90;;;;;;5083167;28;20052;-72
2022/02/22 04:30:59;;;;;;;13.27;9.07;;;10.20;99.90;;;;;;5072870;28;20048;-73
2022/02/22 04:33:26;;;;;;;15.50;9.52;;;9.90;99.90;;;;;;5085164;28;20115;-73
2022/02/22 04:35:53;;;;;;;11.82;9.23;;;9.80;99.90;;;;;;5085594;28;20409;-74
2022/02/22 04:38:20;;;;;;;17.10;10.35;;;10.10;99.90;;;;;;5077219;28;20044;-72
2022/02/22 04:40:48;;;;;;;17.60;9.98;;;10.40;99.90;;;;;;5080818;28;20044;-73
2022/02/22 04:43:15;;;;;;;17.58;9.85;;;10.40;99.90;;;;;;5076886;28;20386;-76
2022/02/22 04:45:42;;;;;;;17.40;10.65;;;10.60;99.90;;;;;;5079149;28;20107;-72
2022/02/22 04:48:10;;;;;;;14.50;10.45;;;10.80;99.90;;;;;;5079886;28;20075;-75
2022/02/22 04:50:37;;;;;;;21.33;10.60;;;10.70;99.90;;;;;;5086309;28;20044;-74
2022/02/22 04:53:09;;;;;;;19.10;10.23;;;10.30;99.90;;;;;;5070011;28;20032;-75
2022/02/22 04:55:37;;;;;;;18.83;11.25;;;10.00;99.90;;;;;;5076936;28;20044;-73
2022/02/22 04:58:04;;;;;;;15.27;10.68;;;10.10;99.90;;;;;;5089080;28;20374;-72
2022/02/22 05:00:31;;;;;;;13.70;9.88;;;10.00;99.90;;;;;;5087260;28;20048;-73
2022/02/22 05:02:59;;;;;;;15.35;10.55;;;10.30;99.90;;;;;;5064044;28;20036;-74
2022/02/22 05:05:27;;;;;;;20.70;11.32;;;10.70;99.90;;;;;;5068380;28;20044;-75
2022/02/22 05:07:59;;;;;;;14.43;10.98;;;10.20;99.90;;;;;;5081376;28;20043;-74
2022/02/22 05:10:26;;;;;;;19.00;11.40;;;10.00;99.90;;;;;;5089370;28;20048;-74
2022/02/22 05:12:53;;;;;;;16.85;11.10;;;9.80;99.90;;;;;;5080137;28;20036;-73
2022/02/22 05:15:20;;;;;;;16.80;10.95;;;9.80;99.90;;;;;;5071074;28;20414;-74
2022/02/22 05:17:47;;;;;;;16.45;11.38;;;10.00;99.90;;;;;;5071788;28;20040;-73
2022/02/22 05:20:17;;;;;;;18.27;11.18;;;10.30;99.90;;;;;;5074574;28;20043;-77
2022/02/22 05:22:46;;;;;;;19.48;11.48;;;10.60;99.90;;;;;;5088691;28;20051;-73
2022/02/22 05:25:14;;;;;;;17.88;11.55;;;10.70;99.90;;;;;;5070010;28;20540;-77
2022/02/22 05:27:42;;;;;;;17.50;10.93;;;10.80;99.90;;;;;;5081466;28;20044;-74
2022/02/22 05:30:12;;;;;;;18.13;10.55;;;10.90;99.90;;;;;;5083766;28;20047;-75
2022/02/22 05:32:40;;;;;;;15.00;10.45;;;10.60;99.90;;;;;;5089929;28;20043;-75
2022/02/22 05:35:09;;;;;;;15.23;10.60;;;10.20;99.90;;;;;;5076731;28;20032;-76
2022/02/22 05:37:37;;;;;;;16.60;11.68;;;10.20;99.90;;;;;;5076192;28;20044;-73
2022/02/22 05:40:07;;;;;;;17.25;10.80;;;10.10;99.90;;;;;;5061834;28;20044;-76
2022/02/22 05:42:35;;;;;;;17.88;11.30;;;10.10;99.90;;;;;;5082137;28;20039;-75
2022/02/22 05:45:03;;;;;;;13.82;10.38;;;10.30;99.90;;;;;;5076716;28;20060;-77
2022/02/22 05:47:30;;;;;;;14.70;10.73;;;10.60;99.90;;;;;;5089962;28;20043;-75
2022/02/22 05:49:57;;;;;;;18.58;11.10;;;10.60;99.90;;;;;;5071468;28;20519;-72
2022/02/22 05:52:24;;;;;;;18.55;11.65;;;10.60;99.90;;;;;;5087194;28;20044;-75
2022/02/22 05:54:52;;;;;;;18.77;11.43;;;10.40;99.90;;;;;;5079931;28;20040;-76
2022/02/22 05:57:19;;;;;;;16.55;11.55;;;10.40;99.90;;;;;;5088845;28;20051;-72
2022/02/22 05:59:46;;;;;;;17.73;11.85;;;10.60;99.90;;;;;;5069885;28;20131;-78
2022/02/22 06:02:15;;;;;;;19.13;11.85;;;10.60;99.90;;;;;;5073447;28;20052;-76
2022/02/22 06:04:42;;;;;;;17.35;11.85;;;10.80;99.90;;;;;;5076759;28;20397;-75
2022/02/22 06:07:09;;;;;;;19.27;11.95;;;10.90;99.90;;;;;;5068673;28;20041;-72
2022/02/22 06:09:40;;;;;;;23.10;13.77;;;10.90;99.90;;;;;;5076921;28;20036;-73
2022/02/22 06:12:07;;;;;;;;;;;11.00;99.90;;;;;;5074242;28;20131;-74
2022/02/22 06:14:34;;;;;;;20.90;12.13;;;11.10;99.90;;;;;;5079179;28;19927;-75
2022/02/22 06:17:02;;;;;;;18.23;11.20;;;10.90;99.90;;;;;;5084488;28;20143;-76
2022/02/22 06:19:29;;;;;;;18.35;11.93;;;10.60;99.90;;;;;;5074059;28;20417;-73
2022/02/22 06:21:56;;;;;;;19.75;12.25;;;10.70;99.90;;;;;;5078079;28;20412;-76
2022/02/22 06:24:24;;;;;;;19.52;12.60;;;10.90;99.90;;;;;;5081552;28;20048;-75
2022/02/22 06:26:51;;;;;;;19.45;12.93;;;11.00;99.90;;;;;;5064837;28;20052;-71
2022/02/22 06:29:18;;;;;;;22.85;13.20;;;11.00;99.90;;;;;;5068934;28;20044;-74
2022/02/22 06:31:47;;;;;;;22.77;14.50;;;11.00;99.90;;;;;;5081168;28;20115;-74
2022/02/22 06:34:14;;;;;;;30.13;17.60;;;11.10;99.90;;;;;;5073563;28;20409;-77
2022/02/22 06:36:41;;;;;;;22.48;15.68;;;11.00;99.90;;;;;;5085930;28;20155;-74
2022/02/22 06:39:09;;;;;;;22.88;15.23;;;11.00;99.90;;;;;;5083672;28;20048;-80
2022/02/22 06:41:37;;;;;;;29.77;16.23;;;11.00;99.90;;;;;;5082268;28;20047;-75
2022/02/22 06:44:05;;;;;;;22.15;15.00;;;11.10;99.90;;;;;;5080015;28;20497;-76
2022/02/22 06:46:32;;;;;;;27.45;15.88;;;11.00;99.90;;;;;;5081424;28;20395;-74
2022/02/22 06:49:00;;;;;;;36.30;21.40;;;11.00;99.90;;;;;;5078507;28;20048;-75
2022/02/22 06:51:28;;;;;;;99.10;59.33;;;11.10;99.90;;;;;;5079308;28;20048;-78
2022/02/22 06:53:55;;;;;;;109.97;65.05;;;11.10;99.90;;;;;;5084686;28;20409;-74
2022/02/22 06:56:22;;;;;;;133.07;80.65;;;10.90;99.90;;;;;;5087653;28;20043;-73
2022/02/22 06:58:50;;;;;;;150.15;85.40;;;11.30;99.90;;;;;;5069569;28;20516;-73
2022/02/22 07:01:17;;;;;;;88.05;52.50;;;11.30;99.90;;;;;;5076556;28;20123;-74
2022/02/22 07:03:44;;;;;;;43.95;27.52;;;11.30;99.90;;;;;;5075055;28;20382;-75
2022/02/22 07:06:13;;;;;;;28.83;17.38;;;11.40;99.90;;;;;;5068408;28;20046;-73
2022/02/22 07:08:40;;;;;;;23.90;15.40;;;11.30;99.90;;;;;;5060965;28;20054;-73
2022/02/22 07:11:07;;;;;;;25.20;14.88;;;11.30;99.90;;;;;;5071414;28;20040;-74
2022/02/22 07:13:35;;;;;;;25.88;16.45;;;11.30;99.90;;;;;;5075124;28;20048;-72
2022/02/22 07:16:02;;;;;;;26.63;16.67;;;11.30;99.90;;;;;;5079418;28;20041;-78
2022/02/22 07:18:29;;;;;;;73.72;44.88;;;11.50;99.90;;;;;;5078937;28;20397;-77
2022/02/22 07:20:57;;;;;;;54.03;34.95;;;11.70;99.90;;;;;;5080805;28;20036;-74
2022/02/22 07:23:24;;;;;;;24.77;16.42;;;11.70;99.90;;;;;;5087102;28;20511;-76
2022/02/22 07:25:51;;;;;;;20.23;13.82;;;11.40;99.90;;;;;;5083954;28;20495;-75
2022/02/22 07:28:18;;;;;;;20.92;14.40;;;10.80;99.90;;;;;;5079591;28;20452;-77
2022/02/22 07:30:47;;;;;;;19.02;13.05;;;10.60;99.90;;;;;;5068900;28;20458;-73
2022/02/22 07:33:14;;;;;;;20.00;12.93;;;10.30;99.90;;;;;;5072038;28;20401;-74
2022/02/22 07:35:41;;;;;;;25.98;13.13;;;9.90;99.90;;;;;;5070984;28;20399;-72
2022/02/22 07:38:09;;;;;;;20.02;13.55;;;9.80;99.90;;;;;;5075075;28;20044;-73
2022/02/22 07:40:37;;;;;;;21.25;13.35;;;9.50;99.90;;;;;;5089361;28;20048;-72
2022/02/22 07:43:04;;;;;;;18.77;12.95;;;9.60;99.90;;;;;;5072298;28;20036;-70
2022/02/22 07:45:32;;;;;;;15.45;11.18;;;9.50;99.90;;;;;;5073279;28;20033;-72
2022/02/22 07:48:00;;;;;;;18.35;11.90;;;9.40;99.90;;;;;;5055811;28;20037;-74
2022/02/22 07:50:28;;;;;;;18.35;11.77;;;9.50;99.90;;;;;;5073155;28;20044;-73
2022/02/22 07:52:55;;;;;;;15.68;10.65;;;9.50;99.90;;;;;;5073135;28;20115;-74
2022/02/22 07:55:22;;;;;;;16.40;11.48;;;9.40;99.90;;;;;;5054966;28;20048;-77
2022/02/22 07:57:50;;;;;;;15.07;10.15;;;9.50;99.90;;;;;;5073125;28;20485;-72
2022/02/22 08:00:17;;;;;;;13.98;9.70;;;9.40;99.90;;;;;;5072659;28;20056;-72
2022/02/22 08:03:04;;;;;;;10.75;8.10;;;9.40;99.90;;;;;;5086897;28;20043;-75
2022/02/22 08:05:32;;;;;;;10.77;7.63;;;9.30;99.90;;;;;;5093312;28;20042;-73
2022/02/22 08:08:00;;;;;;;10.88;7.72;;;9.30;99.90;;;;;;5093197;28;20040;-72
2022/02/22 08:10:28;;;;;;;10.13;6.65;;;9.20;99.90;;;;;;5093796;28;20040;-72
2022/02/22 08:12:56;;;;;;;10.20;7.97;;;9.10;99.90;;;;;;5093540;28;20527;-77
2022/02/22 08:15:23;;;;;;;11.05;7.15;;;9.10;99.90;;;;;;5093040;28;20385;-77
2022/02/22 08:17:51;;;;;;;10.68;7.40;;;9.20;99.90;;;;;;5093407;28;20051;-78
2022/02/22 08:20:19;;;;;;;7.43;5.35;;;9.00;99.90;;;;;;5093089;28;20482;-72
2022/02/22 08:22:47;;;;;;;6.43;4.43;;;8.50;99.90;;;;;;5077405;28;20044;-77
2022/02/22 08:25:14;;;;;;;5.90;4.40;;;8.30;99.90;;;;;;5072437;28;20037;-75
2022/02/22 08:27:42;;;;;;;5.68;4.60;;;8.10;99.90;;;;;;5072304;28;20064;-74
2022/02/22 08:30:10;;;;;;;6.00;4.40;;;8.20;99.90;;;;;;5072912;28;20072;-72
2022/02/22 08:32:38;;;;;;;5.07;4.32;;;8.10;99.90;;;;;;5072453;28;20499;-73
2022/02/22 08:35:06;;;;;;;5.05;4.20;;;8.10;99.90;;;;;;5072384;28;20045;-74
2022/02/22 08:37:33;;;;;;;4.75;4.03;;;7.90;99.90;;;;;;5068427;28;20043;-72
2022/02/22 08:40:01;;;;;;;6.53;4.43;;;7.70;99.90;;;;;;5093006;28;20389;-78
2022/02/22 08:42:28;;;;;;;4.78;4.22;;;7.60;99.90;;;;;;5075384;28;20401;-76
2022/02/22 08:45:15;;;;;;;4.10;3.70;;;7.60;99.90;;;;;;5092232;28;20055;-77
2022/02/22 08:47:43;;;;;;;4.70;4.20;;;7.30;99.90;;;;;;5092761;28;20162;-73
2022/02/22 08:50:10;;;;;;;4.25;3.67;;;7.30;99.90;;;;;;5092335;28;20063;-72
2022/02/22 08:52:38;;;;;;;3.95;3.60;;;7.00;99.90;;;;;;5092042;28;20040;-76
2022/02/22 08:55:05;;;;;;;4.57;3.88;;;6.80;99.90;;;;;;5092656;28;20089;-78
2022/02/22 08:57:33;;;;;;;5.47;4.90;;;6.70;99.90;;;;;;5092464;28;20046;-74
2022/02/22 09:00:04;;;;;;;4.78;4.25;;;6.60;99.90;;;;;;5092280;28;20051;-72
2022/02/22 09:02:32;;;;;;;4.13;3.78;;;6.50;99.90;;;;;;5066967;28;20043;-73
2022/02/22 09:05:02;;;;;;;7.20;4.70;;;6.40;99.90;;;;;;5071778;28;20131;-74
2022/02/22 09:07:29;;;;;;;4.30;3.90;;;6.40;99.90;;;;;;5085091;28;20041;-77
2022/02/22 09:10:02;;;;;;;4.97;4.38;;;6.50;99.90;;;;;;5092757;28;20040;-74
2022/02/22 09:12:32;;;;;;;5.28;4.70;;;6.50;99.90;;;;;;5074221;28;20550;-71
2022/02/22 09:14:59;;;;;;;5.03;4.32;;;6.40;99.90;;;;;;5074111;28;20051;-71
2022/02/22 09:17:27;;;;;;;7.38;4.70;;;6.40;99.90;;;;;;5092146;28;20067;-73
2022/02/22 09:19:54;;;;;;;4.85;4.38;;;6.40;99.90;;;;;;5091995;28;20044;-73
2022/02/22 09:22:21;;;;;;;4.40;4.00;;;6.40;99.90;;;;;;5091997;28;20046;-73
2022/02/22 09:24:49;;;;;;;5.53;4.53;;;6.40;99.90;;;;;;5091823;28;20123;-72
2022/02/22 09:27:16;;;;;;;4.78;4.07;;;6.40;99.90;;;;;;5091777;28;20392;-75
2022/02/22 09:29:46;;;;;;;4.72;4.10;;;6.30;99.90;;;;;;5091941;28;20137;-78
2022/02/22 09:32:14;;;;;;;4.18;3.72;;;6.40;99.90;;;;;;5073780;28;20036;-77
2022/02/22 09:34:41;;;;;;;6.00;4.25;;;6.30;99.90;;;;;;5091576;28;20044;-73
2022/02/22 09:37:10;;;;;;;4.22;3.83;;;6.30;99.90;;;;;;5080669;28;20371;-75
2022/02/22 09:39:39;;;;;;;4.72;4.13;;;6.20;99.90;;;;;;5071492;28;20398;-74
2022/02/22 09:42:08;;;;;;;5.07;4.32;;;6.20;99.90;;;;;;5071715;28;20393;-75
2022/02/22 09:44:40;;;;;;;4.10;3.70;;;6.20;99.90;;;;;;5053688;28;20071;-78
2022/02/22 09:47:09;;;;;;;6.53;4.10;;;6.10;99.90;;;;;;5071304;28;20051;-80
2022/02/22 09:49:36;;;;;;;4.60;4.13;;;6.00;99.90;;;;;;5071301;28;20129;-76
2022/02/22 09:52:04;;;;;;;4.32;3.78;;;6.00;99.90;;;;;;5080947;28;20094;-76
2022/02/22 09:54:33;;;;;;;4.22;3.83;;;5.90;99.90;;;;;;5091243;28;20055;-73
2022/02/22 09:57:01;;;;;;;4.55;4.15;;;5.90;99.90;;;;;;5091689;28;20043;-79
2022/02/22 09:59:28;;;;;;;4.78;4.30;;;5.80;99.90;;;;;;5082610;28;20402;-73
2022/02/22 10:01:56;;;;;;;4.55;4.15;;;5.80;99.90;;;;;;5081580;28;20056;-77
2022/02/22 10:04:25;;;;;;;5.78;4.13;;;5.90;99.90;;;;;;5073329;28;20123;-74
2022/02/22 10:07:03;;;;;;;4.47;4.07;;;5.80;99.90;;;;;;5078816;28;20115;-76
2022/02/22 10:09:31;;;;;;;5.20;4.22;;;5.80;99.90;;;;;;5081477;28;20032;-79
2022/02/22 10:11:58;;;;;;;4.65;4.25;;;5.60;99.90;;;;;;5077976;28;20051;-77
2022/02/22 10:14:27;;;;;;;4.43;4.03;;;5.60;99.90;;;;;;5091717;28;20035;-78
2022/02/22 10:16:57;;;;;;;4.47;4.07;;;5.60;99.90;;;;;;5085222;28;20457;-78
2022/02/22 10:19:28;;;;;;;4.70;4.30;;;5.40;99.90;;;;;;5091058;28;20127;-74
2022/02/22 10:21:59;;;;;;;4.60;4.13;;;5.40;99.90;;;;;;5087899;28;20036;-76
2022/02/22 10:24:30;;;;;;;5.28;4.25;;;5.30;99.90;;;;;;5090281;28;20032;-75
2022/02/22 10:27:06;;;;;;;6.35;4.10;;;5.30;99.90;;;;;;5078287;28;20519;-76
2022/02/22 10:29:36;;;;;;;4.38;3.97;;;5.30;99.90;;;;;;5102199;28;20596;-76
2022/02/22 10:32:16;;;;;;;4.90;4.40;;;5.20;99.90;;;;;;5099785;28;20046;-78
2022/02/22 10:34:44;;;;;;;4.68;4.22;;;5.20;99.90;;;;;;5110675;28;20036;-76
2022/02/22 10:37:11;;;;;;;6.93;5.18;;;5.20;99.90;;;;;;5099781;28;20097;-77
2022/02/22 10:39:38;;;;;;;5.50;4.53;;;5.30;99.90;;;;;;5102884;28;20048;-76
2022/02/22 10:42:06;;;;;;;6.97;4.60;;;5.30;99.90;;;;;;5106893;28;20047;-79
2022/02/22 10:44:39;;;;;;;5.03;4.53;;;5.20;99.90;;;;;;5070351;28;20032;-80
2022/02/22 10:47:20;;;;;;;5.00;4.18;;;5.10;99.90;;;;;;5084755;28;20042;-76
2022/02/22 10:49:49;;;;;;;4.63;4.10;;;5.20;99.90;;;;;;5081269;28;20035;-76
2022/02/22 10:52:19;;;;;;;5.05;4.55;;;5.20;99.90;;;;;;5084029;28;20044;-78
2022/02/22 10:55:00;;;;;;;8.07;4.72;;;5.10;99.90;;;;;;5094927;28;20536;-78
2022/02/22 10:57:35;;;;;;;4.60;4.10;;;5.10;99.90;;;;;;5094844;28;20047;-77
2022/02/22 11:00:04;;;;;;;4.43;4.03;;;5.10;99.90;;;;;;5091901;28;20449;-76
2022/02/22 11:02:32;;;;;;;5.43;4.30;;;5.10;99.90;;;;;;5089264;28;20044;-79
2022/02/22 11:05:20;;;;;;;4.70;4.30;;;5.20;99.90;;;;;;5090549;28;20036;-78
2022/02/22 11:07:52;;;;;;;4.60;4.20;;;5.20;99.90;;;;;;5069116;28;20118;-79
2022/02/22 11:10:26;;;;;;;4.25;3.80;;;5.20;99.90;;;;;;5089425;28;20036;-77
2022/02/22 11:12:59;;;;;;;5.15;4.60;;;5.10;99.90;;;;;;5083712;28;20546;-76
2022/02/22 11:15:35;;;;;;;4.50;4.10;;;5.20;99.90;;;;;;5092312;28;20156;-77
2022/02/22 11:18:17;;;;;;;4.47;4.07;;;5.10;99.90;;;;;;5088558;28;20388;-74
2022/02/22 11:20:45;;;;;;;4.28;3.72;;;5.20;99.90;;;;;;5079468;28;20416;-77
2022/02/22 11:23:22;;;;;;;4.07;3.78;;;5.30;99.90;;;;;;5085538;28;20040;-73
2022/02/22 11:25:52;;;;;;;6.43;4.40;;;5.20;99.90;;;;;;5086921;28;20492;-77
2022/02/22 11:28:19;;;;;;;4.68;4.25;;;5.10;99.90;;;;;;5084053;28;20058;-79
2022/02/22 11:30:46;;;;;;;4.65;4.10;;;5.20;99.90;;;;;;5092429;28;20040;-74
2022/02/22 11:33:19;;;;;;;4.90;4.20;;;5.10;99.90;;;;;;5093780;28;20052;-83
2022/02/22 11:35:57;;;;;;;4.60;4.20;;;5.10;99.90;;;;;;5093380;28;20036;-80
2022/02/22 11:38:44;;;;;;;4.43;4.00;;;5.20;99.90;;;;;;5088349;28;20127;-75
2022/02/22 11:41:42;;;;;;;4.57;4.18;;;5.20;99.90;;;;;;5085748;28;20040;-75
2022/02/22 11:44:18;;;;;;;4.30;3.90;;;5.30;99.90;;;;;;5056261;28;20043;-76
2022/02/22 11:46:52;;;;;;;7.00;4.57;;;5.30;99.90;;;;;;5092801;28;20499;-73
2022/02/22 11:49:28;;;;;;;4.30;3.90;;;5.30;99.90;;;;;;5070913;28;20093;-75
2022/02/22 11:52:11;;;;;;;4.28;3.88;;;5.40;99.90;;;;;;5080750;28;20048;-77
2022/02/22 11:54:45;;;;;;;4.30;3.90;;;5.50;99.90;;;;;;5088481;28;20393;-77
2022/02/22 11:57:18;;;;;;;4.72;4.00;;;5.40;99.90;;;;;;5072631;28;20048;-83
2022/02/22 11:59:46;;;;;;;4.97;3.90;;;5.50;99.90;;;;;;5086366;28;20068;-76
2022/02/22 12:02:27;;;;;;;4.40;4.00;;;5.50;99.90;;;;;;5092062;28;20052;-77
2022/02/22 12:05:21;;;;;;;5.70;4.40;;;5.50;99.90;;;;;;5092881;28;20043;-75
2022/02/22 12:08:02;;;;;;;4.60;4.20;;;5.60;99.90;;;;;;5059525;28;20064;-78
2022/02/22 12:10:31;;;;;;;4.60;4.20;;;5.60;99.90;;;;;;5072889;28;20118;-77
2022/02/22 12:13:07;;;;;;;5.05;4.03;;;5.70;99.90;;;;;;5090499;28;20356;-77
2022/02/22 12:15:34;;;;;;;4.75;4.25;;;5.80;99.90;;;;;;5092937;28;20058;-76
2022/02/22 12:18:02;;;;;;;4.78;4.30;;;5.80;99.90;;;;;;5092776;28;20068;-78
2022/02/22 12:20:30;;;;;;;6.32;5.22;;;5.80;99.90;;;;;;5092518;28;20044;-79
2022/02/22 12:23:00;;;;;;;4.80;4.15;;;5.90;99.90;;;;;;5075853;28;20036;-80
2022/02/22 12:25:28;;;;;;;6.85;4.10;;;5.90;99.90;;;;;;5054915;28;20075;-78
2022/02/22 12:28:05;;;;;;;5.00;4.35;;;5.80;99.90;;;;;;5072189;28;20048;-86
2022/02/22 12:30:37;;;;;;;5.85;4.35;;;5.90;99.90;;;;;;5072288;28;20115;-84
2022/02/22 12:33:06;;;;;;;5.78;4.93;;;5.80;99.90;;;;;;5072495;28;20036;-86
2022/02/22 12:35:38;;;;;;;6.30;5.57;;;5.90;99.90;;;;;;5072581;28;20048;-83
2022/02/22 12:38:32;;;;;;;6.28;5.25;;;6.10;99.90;;;;;;5072342;28;20080;-83
2022/02/22 12:41:14;;;;;;;4.47;4.05;;;6.10;99.90;;;;;;5036573;28;20401;-79
2022/02/22 12:43:50;;;;;;;6.60;4.95;;;6.10;99.90;;;;;;5072356;28;20036;-81
2022/02/22 12:46:19;;;;;;;7.47;5.80;;;6.10;99.90;;;;;;5053787;28;20047;-84
2022/02/22 12:48:47;;;;;;;5.80;4.95;;;6.10;99.90;;;;;;5072152;28;20485;-78